Time;durP1;ratioP1;P1;durP2;ratioP2;P2;SDS_P1;SDS_P2;PMS_P1;PMS_P2;Temp;Humidity;BMP_temperature;BMP_pressure;BME280_temperature;BME280_humidity;BME280_pressure;Samples;Min_cycle;Max_cycle;Signal;HPM_P1;HPM_P2
2021/06/29 00:02:43;;;;;;;9.43;7.72;;;;;;;16.28;59.22;98878.31;2249498;79;20980;-79
2021/06/29 00:05:49;;;;;;;9.73;7.35;;;;;;;16.05;60.21;98875.05;2249705;79;21303;-79
2021/06/29 00:08:47;;;;;;;8.63;7.72;;;;;;;15.77;61.00;98873.98;2249111;79;21304;-79
2021/06/29 00:11:48;;;;;;;10.15;8.20;;;;;;;15.55;61.71;98882.42;2249579;79;20999;-78
2021/06/29 00:14:49;;;;;;;9.18;7.80;;;;;;;15.40;62.52;98886.48;2249074;79;20963;-79
2021/06/29 00:17:50;;;;;;;8.70;7.95;;;;;;;15.25;63.06;98886.14;2249342;79;21308;-79
2021/06/29 00:20:51;;;;;;;9.85;7.72;;;;;;;15.10;63.75;98869.58;2249350;79;20904;-79
2021/06/29 00:23:51;;;;;;;8.05;7.35;;;;;;;15.10;63.75;98869.58;2249333;79;20908;-79
2021/06/29 00:26:53;;;;;;;8.85;7.95;;;;;;;15.00;64.27;98871.39;2249401;79;20972;-79
2021/06/29 00:29:54;;;;;;;9.60;7.58;;;;;;;14.91;64.65;98871.44;2249448;79;20889;-79
2021/06/29 00:32:54;;;;;;;10.13;8.20;;;;;;;14.84;64.99;98874.54;2256035;77;20968;-79
2021/06/29 00:35:55;;;;;;;9.35;7.47;;;;;;;14.77;65.26;98873.26;2291607;78;20956;-79
2021/06/29 00:38:56;;;;;;;8.45;7.75;;;;;;;14.69;65.24;98874.58;2291606;78;20932;-79
2021/06/29 00:41:57;;;;;;;9.75;8.75;;;;;;;14.60;65.42;98870.23;2291836;78;20932;-78
2021/06/29 00:44:58;;;;;;;11.90;8.45;;;;;;;14.56;65.84;98856.67;2291034;78;20963;-78
2021/06/29 00:47:59;;;;;;;9.13;7.92;;;;;;;14.60;66.26;98854.91;2291385;78;21339;-79
2021/06/29 00:51:00;;;;;;;8.83;8.03;;;;;;;14.60;66.26;98854.91;2291569;78;20908;-79
2021/06/29 00:54:01;;;;;;;9.88;8.48;;;;;;;14.52;66.51;98851.44;2291059;78;21328;-77
2021/06/29 00:57:02;;;;;;;17.62;9.13;;;;;;;14.43;66.68;98851.03;2291485;78;20939;-79
2021/06/29 01:00:03;;;;;;;9.58;8.63;;;;;;;14.44;67.34;98842.72;2291327;78;20935;-79
2021/06/29 01:03:04;;;;;;;8.35;7.53;;;;;;;14.44;67.39;98841.41;2291485;78;20907;-78
2021/06/29 01:06:04;;;;;;;8.98;8.18;;;;;;;14.38;67.40;98835.70;2291448;78;20901;-79
2021/06/29 01:09:05;;;;;;;8.98;7.85;;;;;;;14.36;67.76;98840.08;2291496;78;20908;-80
2021/06/29 01:12:06;;;;;;;8.83;8.08;;;;;;;14.30;67.57;98841.42;2291442;78;20932;-79
2021/06/29 01:15:08;;;;;;;17.73;8.68;;;;;;;14.25;67.83;98844.05;2291859;78;20968;-80
2021/06/29 01:18:09;;;;;;;13.95;8.28;;;;;;;14.50;68.13;98840.94;2291173;78;20992;-79
2021/06/29 01:21:09;;;;;;;8.68;7.75;;;;;;;14.45;67.97;98835.27;2291604;78;20869;-79
2021/06/29 01:24:11;;;;;;;11.45;7.97;;;;;;;14.33;67.86;98838.78;2291442;78;20873;-79
2021/06/29 01:27:23;;;;;;;12.98;8.03;;;;;;;14.20;67.83;98841.02;2291589;78;21004;-79
2021/06/29 01:33:17;;;;;;;12.07;9.00;;;;;;;13.96;68.09;98842.81;2269240;78;21020;-81
2021/06/29 01:36:18;;;;;;;12.03;8.65;;;;;;;13.90;68.98;98842.83;2292206;78;20908;-80
2021/06/29 01:39:19;;;;;;;9.48;7.70;;;;;;;13.92;69.43;98843.70;2291772;78;20876;-79
2021/06/29 01:42:20;;;;;;;10.08;8.40;;;;;;;13.89;69.03;98843.70;2291787;78;20957;-80
2021/06/29 01:45:21;;;;;;;9.25;8.38;;;;;;;13.83;69.19;98837.12;2291726;78;20982;-79
2021/06/29 01:48:23;;;;;;;8.45;7.65;;;;;;;13.78;69.27;98832.75;2292250;78;20924;-80
2021/06/29 01:51:24;;;;;;;9.28;8.38;;;;;;;13.71;69.27;98829.26;2292318;78;20939;-80
2021/06/29 01:54:25;;;;;;;10.85;8.03;;;;;;;13.68;69.43;98826.64;2292017;78;20933;-80
2021/06/29 01:57:26;;;;;;;10.08;9.08;;;;;;;13.68;69.68;98826.20;2292006;78;20944;-80
2021/06/29 02:00:27;;;;;;;9.98;8.05;;;;;;;13.68;69.69;98820.08;2291889;78;20909;-79
2021/06/29 02:03:27;;;;;;;9.35;8.15;;;;;;;13.71;69.80;98820.95;2291951;78;20920;-80
2021/06/29 02:06:29;;;;;;;9.48;8.53;;;;;;;13.68;69.91;98817.45;2291936;78;20992;-80
2021/06/29 02:09:29;;;;;;;9.28;8.48;;;;;;;13.65;69.70;98810.91;2292062;78;20877;-82
2021/06/29 02:12:30;;;;;;;10.80;8.80;;;;;;;13.58;69.90;98807.41;2291931;78;20912;-80
2021/06/29 02:15:31;;;;;;;11.60;8.68;;;;;;;13.57;70.10;98804.80;2291892;78;20936;-80
2021/06/29 02:18:33;;;;;;;11.28;8.70;;;;;;;13.57;70.24;98808.73;2292077;78;20961;-80
2021/06/29 02:21:33;;;;;;;11.75;9.13;;;;;;;13.54;70.20;98811.35;2292134;78;20912;-81
2021/06/29 02:24:34;;;;;;;47.90;12.40;;;;;;;13.49;70.21;98816.60;2292230;78;20904;-80
2021/06/29 02:27:35;;;;;;;59.53;14.05;;;;;;;13.46;70.45;98809.17;2292032;78;20900;-80
2021/06/29 02:30:36;;;;;;;10.38;8.90;;;;;;;13.45;70.80;98811.36;2291996;78;20939;-80
2021/06/29 02:33:37;;;;;;;9.33;8.13;;;;;;;13.46;70.71;98811.36;2289622;78;20938;-80
2021/06/29 02:36:38;;;;;;;10.18;8.65;;;;;;;13.41;70.49;98814.41;2282447;77;20953;-80
2021/06/29 02:39:39;;;;;;;9.45;8.55;;;;;;;13.38;70.79;98816.60;2282321;78;20895;-81
2021/06/29 02:42:40;;;;;;;9.13;8.28;;;;;;;13.37;70.58;98813.98;2282436;77;20966;-81
2021/06/29 02:45:41;;;;;;;11.45;8.30;;;;;;;13.32;70.50;98810.48;2282093;78;21385;-81
2021/06/29 02:48:43;;;;;;;25.65;9.35;;;;;;;13.30;70.61;98810.92;2282217;78;20946;-81
2021/06/29 02:51:44;;;;;;;11.38;8.43;;;;;;;13.32;70.90;98811.80;2282263;78;21348;-80
2021/06/29 02:54:44;;;;;;;9.20;8.30;;;;;;;13.34;70.94;98811.36;2282298;78;20934;-80
2021/06/29 02:57:45;;;;;;;8.73;7.92;;;;;;;13.34;70.79;98817.91;2282356;78;21290;-80
2021/06/29 03:00:46;;;;;;;27.32;9.03;;;;;;;13.35;70.85;98819.66;2282404;77;21006;-82
2021/06/29 03:03:47;;;;;;;11.75;7.90;;;;;;;13.37;70.91;98817.47;2282304;77;21341;-81
2021/06/29 03:06:48;;;;;;;10.18;8.60;;;;;;;13.42;71.01;98823.16;2282396;77;20998;-80
2021/06/29 03:09:49;;;;;;;8.68;7.60;;;;;;;13.45;70.86;98823.16;2282338;78;21329;-79
2021/06/29 03:12:50;;;;;;;11.65;8.68;;;;;;;13.51;70.97;98833.20;2282409;77;21310;-80
2021/06/29 03:15:51;;;;;;;10.20;8.93;;;;;;;13.53;70.64;98839.33;2282127;78;21353;-81
2021/06/29 03:18:52;;;;;;;11.73;8.53;;;;;;;13.57;70.80;98834.95;2282581;77;20978;-80
2021/06/29 03:21:53;;;;;;;8.15;7.35;;;;;;;13.60;70.78;98834.95;2282631;77;21323;-82
2021/06/29 03:24:54;;;;;;;12.68;8.53;;;;;;;13.64;70.71;98834.08;2282735;77;20906;-80
2021/06/29 03:27:55;;;;;;;10.63;8.15;;;;;;;13.63;70.54;98832.33;2282599;78;20993;-81
2021/06/29 03:30:56;;;;;;;9.50;8.53;;;;;;;13.64;70.67;98831.02;2282014;77;20970;-78
2021/06/29 03:33:57;;;;;;;9.33;8.28;;;;;;;13.70;71.01;98827.52;2273585;77;20960;-81
2021/06/29 03:37:02;;;;;;;9.83;8.60;;;;;;;13.79;71.16;98826.63;2228288;79;20880;-81
2021/06/29 03:40:02;;;;;;;11.08;8.40;;;;;;;13.89;71.59;98819.21;2250322;78;21005;-80
2021/06/29 03:43:03;;;;;;;109.78;16.90;;;;;;;13.97;71.48;98823.56;2249458;79;20932;-79
2021/06/29 03:46:04;;;;;;;14.68;8.48;;;;;;;14.07;71.87;98828.36;2249432;79;21344;-79
2021/06/29 03:49:05;;;;;;;10.85;8.75;;;;;;;14.19;71.29;98831.39;2249522;79;20881;-79
2021/06/29 03:52:06;;;;;;;13.65;8.30;;;;;;;14.23;71.21;98826.13;2249522;79;21344;-79
2021/06/29 03:55:07;;;;;;;69.10;13.15;;;;;;;14.27;71.28;98824.36;2249523;79;20936;-79
2021/06/29 03:58:08;;;;;;;54.20;9.98;;;;;;;14.35;71.53;98823.89;2249293;79;21276;-79
2021/06/29 04:01:09;;;;;;;14.00;8.55;;;;;;;14.47;71.44;98826.95;2249436;79;21292;-80
2021/06/29 04:04:10;;;;;;;9.13;8.25;;;;;;;14.68;71.29;98828.61;2249281;79;20913;-79
2021/06/29 04:07:11;;;;;;;9.28;8.08;;;;;;;14.92;70.99;98821.49;2249312;79;20964;-79
2021/06/29 04:10:12;;;;;;;12.80;8.70;;;;;;;15.13;70.53;98820.48;2249345;79;21075;-81
2021/06/29 04:13:13;;;;;;;7.95;7.25;;;;;;;15.43;70.54;98825.09;2249483;79;20991;-80
2021/06/29 04:16:14;;;;;;;8.40;7.58;;;;;;;15.69;70.11;98828.88;2249380;79;20948;-79
2021/06/29 04:19:15;;;;;;;9.78;8.10;;;;;;;15.97;69.99;98829.48;2248715;79;20912;-78
2021/06/29 04:22:16;;;;;;;16.67;9.08;;;;;;;16.35;69.64;98833.02;2248322;79;20956;-78
2021/06/29 04:25:17;;;;;;;9.58;7.22;;;;;;;16.61;69.07;98828.80;2248985;79;20984;-79
2021/06/29 04:28:18;;;;;;;8.30;7.45;;;;;;;16.88;68.58;98828.46;2249038;79;20932;-78
2021/06/29 04:31:19;;;;;;;8.13;7.33;;;;;;;17.08;68.28;98829.50;2249307;79;20988;-80
2021/06/29 04:34:20;;;;;;;17.20;9.53;;;;;;;17.32;68.08;98828.26;2259098;77;20989;-79
2021/06/29 04:37:21;;;;;;;8.85;7.85;;;;;;;17.57;68.06;98830.09;2281633;77;20962;-80
2021/06/29 04:40:22;;;;;;;62.73;13.55;;;;;;;17.90;67.75;98826.91;2281924;78;20883;-78
2021/06/29 04:43:23;;;;;;;11.20;7.08;;;;;;;18.08;67.46;98823.92;2281237;78;20930;-79
2021/06/29 04:46:23;;;;;;;18.15;7.33;;;;;;;18.36;67.81;98827.39;2281353;78;20994;-80
2021/06/29 04:49:28;;;;;;;14.95;7.90;;;;;;;18.62;67.16;98818.97;2281394;78;20946;-81
2021/06/29 04:52:27;;;;;;;74.12;13.05;;;;;;;20.00;66.88;98813.55;2281986;77;20990;-82
2021/06/29 04:55:28;;;;;;;11.97;8.35;;;;;;;20.83;63.97;98807.71;2281680;78;20898;-82
2021/06/29 04:58:29;;;;;;;39.18;9.38;;;;;;;21.30;62.76;98805.39;2282204;78;21274;-82
2021/06/29 05:01:30;;;;;;;14.53;7.67;;;;;;;21.71;62.41;98798.76;2282437;77;21283;-82
2021/06/29 05:04:33;;;;;;;11.00;7.35;;;;;;;22.08;61.38;98799.71;2261222;78;20902;-82
2021/06/29 05:07:34;;;;;;;27.45;8.63;;;;;;;22.65;60.76;98795.02;2282087;77;20958;-81
2021/06/29 05:10:35;;;;;;;36.65;9.35;;;;;;;22.86;60.15;98793.77;2282004;77;20942;-80
2021/06/29 05:13:36;;;;;;;15.32;8.60;;;;;;;23.17;59.31;98793.89;2281604;77;21037;-81
2021/06/29 05:16:38;;;;;;;10.08;7.70;;;;;;;23.27;58.15;98789.06;2281351;78;20954;-82
2021/06/29 05:19:39;;;;;;;15.93;9.63;;;;;;;23.01;58.74;98783.45;2282428;77;21377;-82
2021/06/29 05:22:40;;;;;;;9.35;8.13;;;;;;;23.09;58.86;98784.01;2281549;78;20908;-82
2021/06/29 05:25:41;;;;;;;13.98;8.93;;;;;;;23.46;58.26;98782.95;2261053;78;21290;-81
2021/06/29 05:28:43;;;;;;;10.95;9.10;;;;;;;23.75;57.27;98787.56;2281957;77;21042;-82
2021/06/29 05:31:44;;;;;;;196.35;20.12;;;;;;;24.01;55.85;98792.64;2282323;77;21002;-83
2021/06/29 05:34:45;;;;;;;25.35;9.78;;;;;;;23.85;55.36;98792.91;2286202;77;21025;-84
2021/06/29 05:37:46;;;;;;;9.73;8.63;;;;;;;24.11;55.90;98790.44;2292060;78;20965;-83
2021/06/29 05:40:47;;;;;;;12.78;8.33;;;;;;;24.43;55.01;98793.08;2291925;78;20945;-83
2021/06/29 05:43:48;;;;;;;8.15;7.40;;;;;;;24.77;54.49;98797.27;2292085;78;20948;-83
2021/06/29 05:46:51;;;;;;;9.38;7.80;;;;;;;25.12;53.77;98790.77;2291536;78;21359;-82
2021/06/29 05:49:51;;;;;;;49.70;11.30;;;;;;;25.33;52.01;98793.77;2291685;77;20984;-82
2021/06/29 05:52:53;;;;;;;704.40;81.80;;;;;;;25.15;51.80;98793.32;2291694;78;20932;-81
2021/06/29 05:55:54;;;;;;;85.60;12.82;;;;;;;24.90;51.72;98790.02;2291698;78;20920;-82
2021/06/29 05:58:55;;;;;;;49.20;10.78;;;;;;;24.87;52.73;98788.83;2291626;78;20952;-83
2021/06/29 06:01:56;;;;;;;14.10;7.67;;;;;;;25.17;52.46;98786.09;2291708;78;20968;-83
2021/06/29 06:04:56;;;;;;;12.85;7.60;;;;;;;25.16;52.03;98781.70;2291616;78;20952;-84
2021/06/29 06:07:57;;;;;;;11.95;7.53;;;;;;;25.54;51.96;98782.95;2292129;78;20956;-82
2021/06/29 06:10:58;;;;;;;14.70;7.40;;;;;;;25.48;51.36;98792.62;2293007;78;20957;-80
2021/06/29 06:13:59;;;;;;;11.12;6.70;;;;;;;25.83;51.12;98789.06;2291363;78;20912;-79
2021/06/29 06:17:00;;;;;;;7.30;6.20;;;;;;;26.07;49.85;98789.65;2292098;78;20996;-81
2021/06/29 06:20:02;;;;;;;9.55;6.17;;;;;;;26.14;49.37;98784.84;2291557;78;20920;-82
2021/06/29 06:23:02;;;;;;;10.13;6.10;;;;;;;26.26;48.87;98792.23;2291030;78;20957;-81
2021/06/29 06:26:04;;;;;;;8.48;5.65;;;;;;;26.33;48.26;98791.86;2291418;78;20924;-82
2021/06/29 06:29:04;;;;;;;6.92;5.83;;;;;;;26.54;46.93;98787.64;2291428;78;20980;-81
2021/06/29 06:32:06;;;;;;;8.78;5.72;;;;;;;26.61;46.14;98782.34;2291077;78;20995;-80
2021/06/29 06:35:06;;;;;;;5.40;4.90;;;;;;;26.69;46.03;98784.61;2287301;78;21432;-83
2021/06/29 06:38:07;;;;;;;5.42;4.92;;;;;;;26.85;44.62;98788.17;2282072;78;20914;-83
2021/06/29 06:41:13;;;;;;;6.08;4.60;;;;;;;26.81;45.08;98790.63;2282189;77;20922;-83
2021/06/29 06:44:11;;;;;;;78.12;12.65;;;;;;;27.06;43.17;98785.70;2281501;78;20997;-78
2021/06/29 06:47:12;;;;;;;5.37;4.37;;;;;;;27.29;42.99;98786.60;2281300;78;20953;-79
2021/06/29 06:50:13;;;;;;;11.22;5.08;;;;;;;27.62;41.63;98777.59;2281128;77;21262;-81
2021/06/29 06:53:14;;;;;;;10.98;4.97;;;;;;;27.71;41.43;98776.19;2281699;78;20945;-82
2021/06/29 06:56:15;;;;;;;5.78;4.47;;;;;;;27.51;41.30;98774.64;2281933;77;21009;-80
2021/06/29 06:59:16;;;;;;;6.05;4.65;;;;;;;27.40;41.90;98772.59;2282170;77;20962;-81
2021/06/29 07:02:17;;;;;;;9.13;4.97;;;;;;;27.54;41.45;98775.80;2281464;77;21425;-81
2021/06/29 07:05:18;;;;;;;6.70;5.25;;;;;;;27.67;41.53;98766.13;2281241;78;20933;-82
2021/06/29 07:08:19;;;;;;;9.65;4.80;;;;;;;27.86;41.42;98764.59;2281607;77;20974;-79
2021/06/29 07:11:20;;;;;;;7.03;4.85;;;;;;;28.06;41.47;98759.36;2281444;77;20941;-82
2021/06/29 07:14:21;;;;;;;5.15;4.75;;;;;;;28.28;41.97;98765.66;2281724;78;20930;-81
2021/06/29 07:17:22;;;;;;;7.97;4.28;;;;;;;28.47;40.25;98761.73;2281403;78;20942;-82
2021/06/29 07:20:24;;;;;;;4.30;3.90;;;;;;;28.57;39.66;98759.81;2281954;77;20966;-80
2021/06/29 07:23:31;;;;;;;5.50;3.20;;;;;;;28.65;38.00;98756.20;2281432;78;20942;-81
2021/06/29 07:26:32;;;;;;;5.40;3.72;;;;;;;28.58;36.85;98753.48;2281661;77;20962;-80
2021/06/29 07:29:34;;;;;;;5.80;3.47;;;;;;;28.69;37.39;98753.22;2280777;77;20950;-81
2021/06/29 07:32:35;;;;;;;4.17;3.77;;;;;;;28.83;36.82;98758.61;2281205;77;21041;-80
2021/06/29 07:35:36;;;;;;;3.80;3.42;;;;;;;28.88;35.96;98749.39;2285611;77;21031;-79
2021/06/29 07:38:37;;;;;;;6.28;3.45;;;;;;;28.80;35.76;98745.34;2290532;78;20973;-78
2021/06/29 07:41:38;;;;;;;3.95;3.10;;;;;;;29.16;36.03;98740.78;2290528;78;21368;-78
2021/06/29 07:44:39;;;;;;;3.85;3.27;;;;;;;29.56;33.81;98737.34;2290905;78;20908;-80
2021/06/29 07:47:40;;;;;;;6.05;3.60;;;;;;;29.50;33.17;98735.92;2290430;78;21316;-79
2021/06/29 07:50:41;;;;;;;3.55;3.25;;;;;;;29.33;34.14;98725.37;2291190;78;20909;-83
2021/06/29 07:53:42;;;;;;;3.60;3.33;;;;;;;29.45;33.22;98731.30;2292017;78;21347;-83
2021/06/29 07:56:43;;;;;;;3.90;3.60;;;;;;;29.38;33.51;98722.75;2292654;78;20968;-80
2021/06/29 07:59:43;;;;;;;3.92;3.62;;;;;;;29.28;33.18;98735.08;2293319;78;20892;-81
2021/06/29 08:02:44;;;;;;;4.03;3.60;;;;;;;29.41;33.68;98727.06;2293768;78;20912;-79
2021/06/29 08:05:45;;;;;;;3.40;3.10;;;;;;;29.87;33.47;98734.77;2293318;78;20924;-79
2021/06/29 08:08:46;;;;;;;3.80;3.50;;;;;;;30.05;32.90;98733.53;2293198;78;20976;-78
2021/06/29 08:11:47;;;;;;;4.78;3.58;;;;;;;30.18;32.75;98740.27;2293150;78;20979;-79
2021/06/29 08:14:49;;;;;;;5.47;3.40;;;;;;;30.32;31.95;98738.81;2292648;78;20932;-79
2021/06/29 08:17:51;;;;;;;6.78;3.17;;;;;;;30.25;31.67;98747.81;2292013;78;20971;-83
2021/06/29 08:20:52;;;;;;;5.30;2.95;;;;;;;30.01;31.58;98753.52;2292418;78;20968;-81
2021/06/29 08:23:53;;;;;;;13.93;5.55;;;;;;;30.17;32.05;98749.31;2291724;78;21335;-82
2021/06/29 08:26:54;;;;;;;15.30;5.03;;;;;;;30.22;31.89;98748.03;2291705;78;20924;-82
2021/06/29 08:29:57;;;;;;;10.45;3.80;;;;;;;30.08;32.15;98741.39;2292238;78;21319;-82
2021/06/29 08:32:57;;;;;;;5.65;3.37;;;;;;;29.96;31.32;98750.28;2292919;78;20940;-81
2021/06/29 08:35:58;;;;;;;5.00;3.25;;;;;;;29.98;32.17;98755.94;2287107;78;21009;-82
2021/06/29 08:38:59;;;;;;;4.78;3.67;;;;;;;30.27;30.84;98749.91;2282395;77;21425;-82
2021/06/29 08:42:00;;;;;;;9.80;4.42;;;;;;;30.21;31.61;98753.03;2282345;78;20918;-79
2021/06/29 08:45:03;;;;;;;5.12;3.52;;;;;;;30.05;31.31;98753.72;2260562;78;20951;-80
2021/06/29 08:48:04;;;;;;;10.28;3.33;;;;;;;30.05;30.73;98740.27;2282019;77;21155;-82
2021/06/29 08:51:06;;;;;;;5.90;3.42;;;;;;;29.97;31.77;98743.45;2281975;77;20896;-82
2021/06/29 08:54:07;;;;;;;3.02;2.83;;;;;;;30.00;31.56;98739.69;2281995;77;20970;-80
2021/06/29 08:57:08;;;;;;;8.13;3.30;;;;;;;30.10;31.17;98738.98;2282196;77;21259;-81
2021/06/29 09:00:09;;;;;;;4.20;3.20;;;;;;;30.07;31.12;98739.67;2282379;78;20926;-83
2021/06/29 09:03:10;;;;;;;12.07;3.77;;;;;;;30.21;31.45;98740.05;2282630;77;20990;-82
2021/06/29 09:06:11;;;;;;;5.90;3.80;;;;;;;30.32;31.34;98726.70;2282799;78;20914;-82
2021/06/29 09:09:12;;;;;;;16.52;4.37;;;;;;;30.34;31.19;98735.05;2282715;77;20966;-82
2021/06/29 09:12:13;;;;;;;11.50;3.52;;;;;;;30.14;30.39;98735.59;2282604;77;20934;-83
2021/06/29 09:15:14;;;;;;;3.05;2.77;;;;;;;30.14;30.45;98738.28;2282285;77;20971;-82
2021/06/29 09:18:15;;;;;;;4.20;3.33;;;;;;;30.25;30.88;98737.04;2282257;77;21306;-82
2021/06/29 09:21:17;;;;;;;2.67;2.47;;;;;;;30.18;30.18;98727.67;2282584;77;20981;-82
2021/06/29 09:24:18;;;;;;;6.08;2.80;;;;;;;30.39;29.15;98722.64;2281971;77;20922;-83
2021/06/29 09:27:19;;;;;;;5.15;3.17;;;;;;;30.55;29.21;98718.36;2282106;77;20982;-82
2021/06/29 09:33:22;;;;;;;3.67;3.37;;;;;;;30.74;29.90;98715.61;2261228;78;20978;-79
2021/06/29 09:36:23;;;;;;;7.75;3.08;;;;;;;30.76;29.66;98710.11;2261616;76;21003;-80
2021/06/29 09:39:24;;;;;;;6.28;2.75;;;;;;;30.65;29.01;98712.72;2249087;79;20943;-79
2021/06/29 09:42:25;;;;;;;5.05;3.55;;;;;;;30.71;29.32;98701.50;2249908;79;20965;-79
2021/06/29 09:45:26;;;;;;;7.67;3.33;;;;;;;30.76;28.45;98699.82;2249912;79;20912;-78
2021/06/29 09:48:27;;;;;;;5.80;3.05;;;;;;;31.04;27.66;98695.47;2249136;79;21375;-79
2021/06/29 09:51:29;;;;;;;3.35;3.05;;;;;;;30.97;27.64;98684.28;2249550;79;21047;-78
2021/06/29 09:54:30;;;;;;;4.40;3.47;;;;;;;30.71;28.82;98686.69;2250195;79;20979;-81
2021/06/29 09:57:31;;;;;;;7.45;3.90;;;;;;;30.82;29.16;98688.11;2250379;79;20919;-82
2021/06/29 10:00:32;;;;;;;5.17;3.80;;;;;;;31.17;29.49;98684.66;2250105;79;20924;-80
2021/06/29 10:03:34;;;;;;;7.58;3.55;;;;;;;31.44;28.66;98687.15;2250124;79;20909;-81
2021/06/29 10:06:36;;;;;;;10.45;3.47;;;;;;;31.15;28.61;98685.27;2250579;79;20921;-82
2021/06/29 10:09:37;;;;;;;7.45;3.70;;;;;;;30.80;29.39;98684.66;2249401;79;21050;-83
2021/06/29 10:12:38;;;;;;;192.82;173.60;;;;;;;30.89;29.31;98686.68;2249496;79;20956;-81
2021/06/29 10:15:39;;;;;;;5.62;4.67;;;;;;;31.09;28.75;98677.12;2249214;79;20920;-81
2021/06/29 10:18:44;;;;;;;5.33;3.33;;;;;;;31.17;28.00;98684.66;2249075;79;20908;-83
2021/06/29 10:21:43;;;;;;;15.53;4.47;;;;;;;31.34;28.66;98681.59;2249452;79;21023;-80
2021/06/29 10:24:44;;;;;;;6.28;2.98;;;;;;;31.60;28.39;98669.67;2250041;79;20955;-79
2021/06/29 10:27:45;;;;;;;7.05;3.10;;;;;;;31.79;27.46;98673.68;2250722;79;21370;-81
2021/06/29 10:30:46;;;;;;;3.60;3.30;;;;;;;31.84;28.44;98665.59;2250752;79;20965;-82
2021/06/29 10:33:47;;;;;;;4.65;2.90;;;;;;;31.58;28.98;98670.28;2250412;79;20952;-80
2021/06/29 10:36:48;;;;;;;5.67;2.80;;;;;;;31.47;27.55;98659.45;2271213;77;21057;-82
2021/06/29 10:39:49;;;;;;;3.98;3.67;;;;;;;31.34;28.96;98654.63;2282455;78;21080;-83
2021/06/29 10:42:53;;;;;;;3.33;2.90;;;;;;;31.15;28.74;98661.86;2282116;78;20940;-83
2021/06/29 10:45:54;;;;;;;3.62;3.30;;;;;;;30.94;28.03;98652.66;2282238;78;21104;-81
2021/06/29 10:48:55;;;;;;;3.02;2.62;;;;;;;30.97;28.22;98654.63;2282202;77;21333;-79
2021/06/29 10:51:56;;;;;;;3.08;2.87;;;;;;;31.16;28.21;98647.89;2282273;78;20945;-81
2021/06/29 10:54:57;;;;;;;5.47;3.15;;;;;;;31.37;27.79;98654.39;2282275;77;21408;-81
2021/06/29 10:57:58;;;;;;;18.48;4.92;;;;;;;31.27;28.09;98648.84;2281657;78;20953;-79
2021/06/29 11:01:00;;;;;;;3.55;2.80;;;;;;;31.26;28.38;98651.16;2281302;78;21355;-78
2021/06/29 11:04:02;;;;;;;19.25;4.37;;;;;;;31.25;27.79;98648.58;2281465;78;21754;-82
2021/06/29 11:07:03;;;;;;;18.07;4.03;;;;;;;31.45;26.84;98641.66;2281810;77;21330;-81
2021/06/29 11:10:04;;;;;;;3.75;3.02;;;;;;;31.64;26.26;98641.97;2282128;77;21112;-81
2021/06/29 11:13:05;;;;;;;7.58;3.08;;;;;;;31.63;27.05;98642.45;2282415;78;20926;-79
2021/06/29 11:16:06;;;;;;;5.30;3.12;;;;;;;31.71;27.43;98639.69;2282548;78;20982;-81
2021/06/29 11:19:08;;;;;;;9.63;3.45;;;;;;;31.65;27.21;98633.75;2282740;77;20978;-80
2021/06/29 11:22:09;;;;;;;4.00;3.20;;;;;;;31.70;27.71;98631.22;2282490;78;21013;-81
2021/06/29 11:25:10;;;;;;;9.60;3.17;;;;;;;31.58;27.34;98629.81;2281731;77;20918;-81
2021/06/29 11:28:11;;;;;;;9.33;3.50;;;;;;;31.62;26.49;98625.90;2280931;78;20993;-81
2021/06/29 11:31:12;;;;;;;3.47;2.52;;;;;;;31.81;26.29;98622.66;2281267;77;20977;-80
2021/06/29 11:34:15;;;;;;;3.42;2.58;;;;;;;32.17;26.96;98625.66;2280997;78;20890;-81
2021/06/29 11:37:15;;;;;;;7.00;2.47;;;;;;;32.30;25.81;98621.02;2257743;77;21036;-79
2021/06/29 11:40:16;;;;;;;4.17;2.80;;;;;;;32.43;25.40;98617.33;2250194;79;21264;-83
2021/06/29 11:43:17;;;;;;;8.05;3.05;;;;;;;32.38;25.19;98619.55;2249688;77;21336;-82
2021/06/29 11:46:18;;;;;;;5.78;2.65;;;;;;;32.62;24.87;98617.05;2249872;79;21359;-81
2021/06/29 11:49:19;;;;;;;3.15;2.95;;;;;;;32.76;24.79;98613.21;2250651;79;20920;-82
2021/06/29 11:52:20;;;;;;;2.67;2.47;;;;;;;32.85;25.03;98606.22;2250652;79;20927;-81
2021/06/29 11:55:21;;;;;;;6.00;2.80;;;;;;;32.68;24.47;98595.91;2249635;79;20959;-81
2021/06/29 12:01:25;;;;;;;2.90;2.42;;;;;;;32.91;23.21;98597.10;2226746;79;21376;-78
2021/06/29 12:04:26;;;;;;;3.05;2.70;;;;;;;33.12;23.19;98597.67;2248879;79;21721;-81
2021/06/29 12:07:27;;;;;;;6.72;2.65;;;;;;;33.22;23.57;98595.91;2249956;79;21061;-82
2021/06/29 12:10:28;;;;;;;4.83;2.40;;;;;;;33.04;23.23;98589.34;2249469;79;21371;-81
2021/06/29 12:13:29;;;;;;;2.42;2.22;;;;;;;33.03;23.31;98591.69;2249288;79;20924;-79
2021/06/29 12:16:30;;;;;;;6.12;2.20;;;;;;;33.09;22.88;98590.67;2249145;79;21039;-80
2021/06/29 12:19:31;;;;;;;4.45;2.30;;;;;;;33.12;21.41;98582.30;2249517;79;21249;-80
2021/06/29 12:22:32;;;;;;;5.15;2.70;;;;;;;32.97;22.11;98583.59;2249862;79;20969;-80
2021/06/29 12:25:33;;;;;;;5.78;2.65;;;;;;;32.66;22.54;98574.42;2249223;79;21312;-80
2021/06/29 12:28:36;;;;;;;10.00;3.30;;;;;;;32.66;22.93;98559.56;2249842;79;20976;-80
2021/06/29 12:31:36;;;;;;;13.88;4.40;;;;;;;32.66;22.93;98559.56;2249849;79;20995;-81
2021/06/29 12:34:37;;;;;;;4.50;2.92;;;;;;;32.63;23.13;98557.11;2249825;79;20936;-81
2021/06/29 12:37:38;;;;;;;5.60;2.50;;;;;;;32.58;21.92;98547.18;2249468;77;20955;-80
2021/06/29 12:40:39;;;;;;;4.85;2.55;;;;;;;32.84;21.99;98541.84;2249425;79;20977;-79
2021/06/29 12:43:40;;;;;;;7.45;2.58;;;;;;;33.05;21.91;98533.79;2249102;79;20901;-79
2021/06/29 12:46:42;;;;;;;7.90;2.58;;;;;;;33.13;21.84;98528.58;2249261;79;21482;-80
2021/06/29 12:49:43;;;;;;;2.67;2.30;;;;;;;32.70;22.67;98528.59;2249377;79;20972;-81
2021/06/29 12:52:44;;;;;;;13.40;3.52;;;;;;;32.80;22.52;98530.06;2249996;79;21395;-79
2021/06/29 12:55:45;;;;;;;4.90;2.77;;;;;;;32.95;22.18;98509.88;2249873;79;20900;-79
2021/06/29 12:58:46;;;;;;;8.03;2.70;;;;;;;32.69;23.24;98516.56;2249477;79;21027;-81
2021/06/29 13:01:47;;;;;;;7.92;2.70;;;;;;;32.53;23.74;98507.53;2249755;79;20900;-82
2021/06/29 13:04:51;;;;;;;26.52;3.75;;;;;;;32.54;24.80;98503.34;2249863;79;21360;-76
2021/06/29 13:07:51;;;;;;;7.45;2.83;;;;;;;32.49;24.10;98496.61;2249743;78;20984;-79
2021/06/29 13:10:52;;;;;;;8.73;3.47;;;;;;;32.09;24.12;98497.66;2250222;79;20964;-79
2021/06/29 13:13:52;;;;;;;11.78;3.70;;;;;;;31.86;24.45;98494.95;2249855;79;20904;-81
2021/06/29 13:16:53;;;;;;;35.35;5.47;;;;;;;31.94;24.88;98484.89;2249628;79;21007;-77
2021/06/29 13:19:54;;;;;;;38.70;5.37;;;;;;;31.97;24.92;98475.19;2249840;79;21291;-80
2021/06/29 13:22:58;;;;;;;8.98;3.30;;;;;;;32.04;24.83;98471.01;2249754;79;20932;-80
2021/06/29 13:25:58;;;;;;;4.03;3.05;;;;;;;32.15;24.92;98461.56;2250497;78;21324;-81
2021/06/29 13:29:00;;;;;;;3.65;2.85;;;;;;;32.11;25.75;98455.20;2249913;79;20999;-81
2021/06/29 13:32:00;;;;;;;4.97;2.90;;;;;;;32.05;26.37;98450.27;2250088;79;21376;-81
2021/06/29 13:38:06;;;;;;;5.17;3.17;;;;;;;31.94;27.17;98461.95;2263461;78;20965;-80
2021/06/29 13:41:08;;;;;;;4.12;2.67;;;;;;;31.90;27.03;98458.64;2291959;78;20992;-78
2021/06/29 13:44:09;;;;;;;4.12;2.60;;;;;;;31.87;26.86;98456.19;2291160;78;21382;-79
2021/06/29 13:47:10;;;;;;;4.80;2.75;;;;;;;31.94;26.91;98454.70;2292119;78;21394;-80
2021/06/29 13:50:11;;;;;;;4.65;2.80;;;;;;;31.96;26.87;98446.48;2291980;78;20953;-80
2021/06/29 13:53:12;;;;;;;9.33;3.52;;;;;;;32.05;26.79;98444.87;2292219;78;20967;-81
2021/06/29 13:56:14;;;;;;;8.30;3.15;;;;;;;32.10;26.97;98433.23;2292031;78;20912;-81
2021/06/29 13:59:15;;;;;;;6.85;3.00;;;;;;;31.99;26.86;98432.73;2291550;78;20916;-78
2021/06/29 14:02:16;;;;;;;3.67;2.65;;;;;;;31.70;27.44;98421.63;2291544;78;21082;-81
2021/06/29 14:05:17;;;;;;;4.33;2.80;;;;;;;31.79;27.57;98418.17;2291768;78;20916;-80
2021/06/29 14:08:18;;;;;;;3.45;3.15;;;;;;;31.78;27.37;98416.45;2291701;78;20892;-79
2021/06/29 14:11:19;;;;;;;5.75;3.30;;;;;;;31.80;27.42;98416.33;2291656;78;20951;-80
2021/06/29 14:14:22;;;;;;;3.27;2.98;;;;;;;31.87;27.55;98412.15;2292290;78;20959;-80
2021/06/29 14:17:22;;;;;;;2.87;2.60;;;;;;;31.94;27.23;98407.96;2292126;78;21036;-80
2021/06/29 14:20:23;;;;;;;3.02;2.65;;;;;;;32.11;26.70;98407.45;2292042;78;20893;-80